Turpan, China
Current Conditions -  °F | °C
As of 11:00 PM on Saturday 22 Nov 2014 (Local Time) from ZWWW Reporting Station
Clear Clear  
Wind Chill: 28°   Ceiling: Unl
Heat Index: 32°   Visibility: 4mi
Dew Point: 21°   Wind: 4mph
Humidity: 64%   Direction: 180°S
Pressure: 30.33"   Gusts: NA
Location:  42.93°N, 89.2°E
Report Text: ZWWW 221500Z 18002MPS 140V210 6000 NSC M00/M06 Q1027 NOSIG
Loading
Personal Weather Stations






























Interactive Weather Map New forecast layout! Learn more

10-Day Weather Forecast

Advertisements
Track Severe Weather on mobile